sensor_id;sensor_type;location;lat;lon;timestamp;pressure;altitude;pressure_sealevel;temperature;humidity
47556;BME280;33291;46.222;26.460;2023-05-10T00:00:31;97173.84;;;5.11;100.00
47556;BME280;33291;46.222;26.460;2023-05-10T00:02:57;97174.03;;;5.08;100.00
47556;BME280;33291;46.222;26.460;2023-05-10T00:05:22;97155.88;;;4.93;100.00
47556;BME280;33291;46.222;26.460;2023-05-10T00:07:47;97160.81;;;4.98;100.00
47556;BME280;33291;46.222;26.460;2023-05-10T00:10:13;97161.81;;;4.95;100.00
47556;BME280;33291;46.222;26.460;2023-05-10T00:12:38;97159.50;;;4.91;100.00
47556;BME280;33291;46.222;26.460;2023-05-10T00:15:05;97159.22;;;4.95;100.00
47556;BME280;33291;46.222;26.460;2023-05-10T00:17:30;97155.34;;;4.88;100.00
47556;BME280;33291;46.222;26.460;2023-05-10T00:19:56;97161.56;;;4.84;100.00
47556;BME280;33291;46.222;26.460;2023-05-10T00:22:21;97155.84;;;4.79;100.00
47556;BME280;33291;46.222;26.460;2023-05-10T00:24:47;97152.63;;;4.75;100.00
47556;BME280;33291;46.222;26.460;2023-05-10T00:27:12;97159.44;;;4.76;99.83
47556;BME280;33291;46.222;26.460;2023-05-10T00:29:38;97130.59;;;4.54;99.17
47556;BME280;33291;46.222;26.460;2023-05-10T00:32:04;97151.66;;;4.62;99.36
47556;BME280;33291;46.222;26.460;2023-05-10T00:34:29;97152.63;;;4.59;99.69
47556;BME280;33291;46.222;26.460;2023-05-10T00:36:55;97150.50;;;4.52;99.71
47556;BME280;33291;46.222;26.460;2023-05-10T00:39:21;97157.16;;;4.56;99.66
47556;BME280;33291;46.222;26.460;2023-05-10T00:41:46;97154.91;;;4.50;99.74
47556;BME280;33291;46.222;26.460;2023-05-10T00:44:12;97154.16;;;4.48;99.51
47556;BME280;33291;46.222;26.460;2023-05-10T00:46:37;97155.50;;;4.39;98.87
47556;BME280;33291;46.222;26.460;2023-05-10T00:49:03;97158.19;;;4.37;99.50
47556;BME280;33291;46.222;26.460;2023-05-10T00:51:29;97146.19;;;4.36;99.48
47556;BME280;33291;46.222;26.460;2023-05-10T00:53:56;97151.34;;;4.36;99.13
47556;BME280;33291;46.222;26.460;2023-05-10T00:56:22;97154.66;;;4.38;99.11
47556;BME280;33291;46.222;26.460;2023-05-10T00:58:49;97144.13;;;4.27;99.02
47556;BME280;33291;46.222;26.460;2023-05-10T01:01:15;97149.09;;;4.30;98.40
47556;BME280;33291;46.222;26.460;2023-05-10T01:03:40;97148.41;;;4.26;98.40
47556;BME280;33291;46.222;26.460;2023-05-10T01:06:07;97149.84;;;4.16;98.40
47556;BME280;33291;46.222;26.460;2023-05-10T01:08:32;97149.00;;;4.16;98.61
47556;BME280;33291;46.222;26.460;2023-05-10T01:10:58;97141.03;;;4.04;98.45
47556;BME280;33291;46.222;26.460;2023-05-10T01:13:36;97144.94;;;4.12;98.69
47556;BME280;33291;46.222;26.460;2023-05-10T01:16:03;97144.09;;;4.11;98.46
47556;BME280;33291;46.222;26.460;2023-05-10T01:18:39;97153.41;;;4.14;98.14
47556;BME280;33291;46.222;26.460;2023-05-10T01:21:27;97147.53;;;4.12;98.12
47556;BME280;33291;46.222;26.460;2023-05-10T01:32:51;97145.50;;;3.85;97.11
47556;BME280;33291;46.222;26.460;2023-05-10T01:35:37;97142.25;;;3.81;97.71
47556;BME280;33291;46.222;26.460;2023-05-10T01:38:31;97141.25;;;3.84;97.77
47556;BME280;33291;46.222;26.460;2023-05-10T01:41:16;97112.22;;;3.64;97.37
47556;BME280;33291;46.222;26.460;2023-05-10T01:43:51;97136.41;;;3.78;97.19
47556;BME280;33291;46.222;26.460;2023-05-10T01:46:34;97124.75;;;3.70;96.96
47556;BME280;33291;46.222;26.460;2023-05-10T01:49:02;97142.81;;;3.70;96.58
47556;BME280;33291;46.222;26.460;2023-05-10T01:51:37;97134.50;;;3.65;96.88
47556;BME280;33291;46.222;26.460;2023-05-10T01:54:05;97114.69;;;3.50;96.84
47556;BME280;33291;46.222;26.460;2023-05-10T01:56:33;97138.13;;;3.61;97.17
47556;BME280;33291;46.222;26.460;2023-05-10T01:59:00;97128.31;;;3.52;97.16
47556;BME280;33291;46.222;26.460;2023-05-10T02:01:29;97121.50;;;3.51;97.16
47556;BME280;33291;46.222;26.460;2023-05-10T02:03:56;97124.84;;;3.53;97.28
47556;BME280;33291;46.222;26.460;2023-05-10T02:06:23;97129.97;;;3.53;97.67
47556;BME280;33291;46.222;26.460;2023-05-10T02:08:50;97105.94;;;3.36;97.85
47556;BME280;33291;46.222;26.460;2023-05-10T02:11:18;97122.41;;;3.50;98.49
47556;BME280;33291;46.222;26.460;2023-05-10T02:13:44;97124.00;;;3.52;98.58
47556;BME280;33291;46.222;26.460;2023-05-10T02:16:13;97121.50;;;3.51;98.70
47556;BME280;33291;46.222;26.460;2023-05-10T02:18:40;97120.41;;;3.55;98.68
47556;BME280;33291;46.222;26.460;2023-05-10T02:21:08;97100.06;;;3.50;98.90
47556;BME280;33291;46.222;26.460;2023-05-10T02:23:36;97109.53;;;3.50;98.80
47556;BME280;33291;46.222;26.460;2023-05-10T02:26:02;97115.59;;;3.49;99.19
47556;BME280;33291;46.222;26.460;2023-05-10T02:28:32;97080.19;;;3.36;99.26
47556;BME280;33291;46.222;26.460;2023-05-10T02:30:58;97112.34;;;3.45;99.63
47556;BME280;33291;46.222;26.460;2023-05-10T02:33:24;97113.00;;;3.49;99.63
47556;BME280;33291;46.222;26.460;2023-05-10T02:35:52;97098.72;;;3.43;99.53
47556;BME280;33291;46.222;26.460;2023-05-10T02:38:19;97091.38;;;3.35;99.29
47556;BME280;33291;46.222;26.460;2023-05-10T02:40:46;97077.84;;;3.32;99.30
47556;BME280;33291;46.222;26.460;2023-05-10T02:43:14;97095.16;;;3.46;99.88
47556;BME280;33291;46.222;26.460;2023-05-10T02:45:43;97108.97;;;3.45;99.92
47556;BME280;33291;46.222;26.460;2023-05-10T02:48:12;97111.38;;;3.48;99.79
47556;BME280;33291;46.222;26.460;2023-05-10T02:50:38;97099.31;;;3.48;99.55
47556;BME280;33291;46.222;26.460;2023-05-10T02:53:11;97108.63;;;3.51;99.63
47556;BME280;33291;46.222;26.460;2023-05-10T02:55:40;97103.41;;;3.52;99.35
47556;BME280;33291;46.222;26.460;2023-05-10T02:58:08;97106.63;;;3.56;99.73
47556;BME280;33291;46.222;26.460;2023-05-10T03:00:34;97097.22;;;3.55;99.34
47556;BME280;33291;46.222;26.460;2023-05-10T03:03:01;97109.06;;;3.59;99.53
47556;BME280;33291;46.222;26.460;2023-05-10T03:05:27;97105.50;;;3.62;99.66
47556;BME280;33291;46.222;26.460;2023-05-10T03:07:52;97108.81;;;3.64;99.30
47556;BME280;33291;46.222;26.460;2023-05-10T03:10:20;97107.91;;;3.65;99.32
47556;BME280;33291;46.222;26.460;2023-05-10T03:15:28;97098.59;;;3.62;99.58
47556;BME280;33291;46.222;26.460;2023-05-10T03:18:06;97088.59;;;3.56;99.60
47556;BME280;33291;46.222;26.460;2023-05-10T03:20:48;97091.91;;;3.58;99.87
47556;BME280;33291;46.222;26.460;2023-05-10T03:23:39;97108.06;;;3.62;100.00
47556;BME280;33291;46.222;26.460;2023-05-10T03:26:05;97096.25;;;3.58;100.00
47556;BME280;33291;46.222;26.460;2023-05-10T03:28:34;97101.31;;;3.59;100.00
47556;BME280;33291;46.222;26.460;2023-05-10T03:30:59;97099.66;;;3.58;100.00
47556;BME280;33291;46.222;26.460;2023-05-10T03:33:25;97097.94;;;3.59;100.00
47556;BME280;33291;46.222;26.460;2023-05-10T03:35:51;97095.28;;;3.60;100.00
47556;BME280;33291;46.222;26.460;2023-05-10T03:38:16;97094.16;;;3.64;100.00
47556;BME280;33291;46.222;26.460;2023-05-10T03:40:42;97102.59;;;3.68;100.00
47556;BME280;33291;46.222;26.460;2023-05-10T03:43:07;97076.78;;;3.52;100.00
47556;BME280;33291;46.222;26.460;2023-05-10T03:45:33;97096.50;;;3.69;100.00
47556;BME280;33291;46.222;26.460;2023-05-10T03:47:58;97110.06;;;3.72;100.00
47556;BME280;33291;46.222;26.460;2023-05-10T03:50:24;97108.41;;;3.71;100.00
47556;BME280;33291;46.222;26.460;2023-05-10T03:52:50;97107.50;;;3.72;100.00
47556;BME280;33291;46.222;26.460;2023-05-10T03:55:15;97113.22;;;3.78;100.00
47556;BME280;33291;46.222;26.460;2023-05-10T03:57:41;97094.78;;;3.69;100.00
47556;BME280;33291;46.222;26.460;2023-05-10T04:00:07;97095.44;;;3.73;100.00
47556;BME280;33291;46.222;26.460;2023-05-10T04:02:33;97101.84;;;3.82;100.00
47556;BME280;33291;46.222;26.460;2023-05-10T04:04:58;97114.31;;;3.89;100.00
47556;BME280;33291;46.222;26.460;2023-05-10T04:07:24;97116.00;;;3.90;100.00
47556;BME280;33291;46.222;26.460;2023-05-10T04:09:49;97114.97;;;3.93;100.00
47556;BME280;33291;46.222;26.460;2023-05-10T04:12:15;97061.53;;;3.65;100.00
47556;BME280;33291;46.222;26.460;2023-05-10T04:14:40;97113.66;;;4.02;99.85
47556;BME280;33291;46.222;26.460;2023-05-10T04:17:06;97074.25;;;3.84;100.00
47556;BME280;33291;46.222;26.460;2023-05-10T04:19:32;97107.44;;;4.06;100.00
47556;BME280;33291;46.222;26.460;2023-05-10T04:21:58;97099.78;;;4.04;99.78
47556;BME280;33291;46.222;26.460;2023-05-10T04:24:24;97115.66;;;4.13;99.62
47556;BME280;33291;46.222;26.460;2023-05-10T04:26:51;97109.59;;;4.14;99.94
47556;BME280;33291;46.222;26.460;2023-05-10T04:29:16;97107.19;;;4.11;99.86
47556;BME280;33291;46.222;26.460;2023-05-10T04:31:42;97113.34;;;4.24;99.67
47556;BME280;33291;46.222;26.460;2023-05-10T04:34:07;97089.69;;;4.16;99.88
47556;BME280;33291;46.222;26.460;2023-05-10T04:36:33;97117.06;;;4.34;99.64
47556;BME280;33291;46.222;26.460;2023-05-10T04:39:01;97127.22;;;4.37;99.84
47556;BME280;33291;46.222;26.460;2023-05-10T04:41:28;97113.47;;;4.37;99.73
47556;BME280;33291;46.222;26.460;2023-05-10T04:43:53;97122.44;;;4.45;100.00
47556;BME280;33291;46.222;26.460;2023-05-10T04:46:19;97116.22;;;4.50;99.96
47556;BME280;33291;46.222;26.460;2023-05-10T04:48:44;97115.19;;;4.52;99.81
47556;BME280;33291;46.222;26.460;2023-05-10T04:51:10;97106.47;;;4.55;99.67
47556;BME280;33291;46.222;26.460;2023-05-10T04:53:35;97111.28;;;4.61;99.72
47556;BME280;33291;46.222;26.460;2023-05-10T04:56:00;97121.16;;;4.69;99.83
47556;BME280;33291;46.222;26.460;2023-05-10T04:58:26;97112.41;;;4.71;99.81
47556;BME280;33291;46.222;26.460;2023-05-10T05:00:51;97119.16;;;4.74;100.00
47556;BME280;33291;46.222;26.460;2023-05-10T05:03:17;97112.16;;;4.76;100.00
47556;BME280;33291;46.222;26.460;2023-05-10T05:05:43;97109.31;;;4.80;99.44
47556;BME280;33291;46.222;26.460;2023-05-10T05:08:09;97107.47;;;4.83;99.14
47556;BME280;33291;46.222;26.460;2023-05-10T05:10:35;97110.63;;;4.88;98.92
47556;BME280;33291;46.222;26.460;2023-05-10T05:13:00;97107.50;;;4.97;99.40
47556;BME280;33291;46.222;26.460;2023-05-10T05:15:26;97114.91;;;5.03;98.79
47556;BME280;33291;46.222;26.460;2023-05-10T05:17:51;97106.34;;;5.03;98.40
47556;BME280;33291;46.222;26.460;2023-05-10T05:20:17;97112.50;;;5.14;98.47
47556;BME280;33291;46.222;26.460;2023-05-10T05:22:44;97116.66;;;5.17;97.71
47556;BME280;33291;46.222;26.460;2023-05-10T05:25:10;97112.31;;;5.18;97.73
47556;BME280;33291;46.222;26.460;2023-05-10T05:27:36;97113.91;;;5.20;97.05
47556;BME280;33291;46.222;26.460;2023-05-10T05:30:02;97118.78;;;5.25;96.87
47556;BME280;33291;46.222;26.460;2023-05-10T05:32:28;97100.16;;;5.20;97.01
47556;BME280;33291;46.222;26.460;2023-05-10T05:34:53;97114.75;;;5.35;97.35
47556;BME280;33291;46.222;26.460;2023-05-10T05:37:20;97114.75;;;5.35;97.28
47556;BME280;33291;46.222;26.460;2023-05-10T05:39:46;97095.28;;;5.29;97.09
47556;BME280;33291;46.222;26.460;2023-05-10T05:42:12;97108.66;;;5.50;96.62
47556;BME280;33291;46.222;26.460;2023-05-10T05:44:39;97114.13;;;5.60;96.75
47556;BME280;33291;46.222;26.460;2023-05-10T05:47:04;97096.84;;;5.61;95.74
47556;BME280;33291;46.222;26.460;2023-05-10T05:49:30;97103.03;;;5.73;95.92
47556;BME280;33291;46.222;26.460;2023-05-10T05:52:03;97105.97;;;5.81;95.82
47556;BME280;33291;46.222;26.460;2023-05-10T05:54:29;97109.94;;;5.86;94.85
47556;BME280;33291;46.222;26.460;2023-05-10T05:56:59;97106.78;;;5.96;94.15
47556;BME280;33291;46.222;26.460;2023-05-10T05:59:25;97087.09;;;5.93;93.44
47556;BME280;33291;46.222;26.460;2023-05-10T06:01:51;97099.09;;;6.09;93.02
47556;BME280;33291;46.222;26.460;2023-05-10T06:04:17;97094.94;;;6.20;92.51
47556;BME280;33291;46.222;26.460;2023-05-10T06:06:43;97097.69;;;6.32;91.96
47556;BME280;33291;46.222;26.460;2023-05-10T06:09:09;97101.13;;;6.45;90.91
47556;BME280;33291;46.222;26.460;2023-05-10T06:11:34;97100.75;;;6.51;90.51
47556;BME280;33291;46.222;26.460;2023-05-10T06:14:01;97103.56;;;6.61;89.84
47556;BME280;33291;46.222;26.460;2023-05-10T06:16:27;97108.03;;;6.72;89.56
47556;BME280;33291;46.222;26.460;2023-05-10T06:18:53;97084.84;;;6.70;88.42
47556;BME280;33291;46.222;26.460;2023-05-10T06:21:18;97103.44;;;6.90;86.84
47556;BME280;33291;46.222;26.460;2023-05-10T06:23:44;97077.84;;;6.85;85.82
47556;BME280;33291;46.222;26.460;2023-05-10T06:26:09;97098.59;;;7.11;84.61
47556;BME280;33291;46.222;26.460;2023-05-10T06:28:35;97092.56;;;7.23;83.78
47556;BME280;33291;46.222;26.460;2023-05-10T06:31:03;97087.78;;;7.30;83.35
47556;BME280;33291;46.222;26.460;2023-05-10T06:33:29;97087.16;;;7.39;82.97
47556;BME280;33291;46.222;26.460;2023-05-10T06:35:55;97091.13;;;7.58;82.39
47556;BME280;33291;46.222;26.460;2023-05-10T06:38:21;97088.81;;;7.66;81.91
47556;BME280;33291;46.222;26.460;2023-05-10T06:40:46;97088.06;;;7.77;80.69
47556;BME280;33291;46.222;26.460;2023-05-10T06:43:12;97067.53;;;7.74;79.79
47556;BME280;33291;46.222;26.460;2023-05-10T06:45:37;97093.63;;;7.96;78.47
47556;BME280;33291;46.222;26.460;2023-05-10T06:48:03;97090.50;;;8.04;77.63
47556;BME280;33291;46.222;26.460;2023-05-10T06:50:28;97090.25;;;8.20;76.29
47556;BME280;33291;46.222;26.460;2023-05-10T06:52:54;97086.78;;;8.32;75.52
47556;BME280;33291;46.222;26.460;2023-05-10T06:55:20;97092.56;;;8.49;74.30
47556;BME280;33291;46.222;26.460;2023-05-10T06:57:46;97090.00;;;8.60;71.41
47556;BME280;33291;46.222;26.460;2023-05-10T07:00:13;97090.56;;;8.64;70.05
47556;BME280;33291;46.222;26.460;2023-05-10T07:02:38;97078.91;;;8.69;69.08
47556;BME280;33291;46.222;26.460;2023-05-10T07:05:04;97090.88;;;8.83;67.91
47556;BME280;33291;46.222;26.460;2023-05-10T07:07:30;97085.25;;;8.89;67.03
47556;BME280;33291;46.222;26.460;2023-05-10T07:09:56;97093.06;;;9.01;66.31
47556;BME280;33291;46.222;26.460;2023-05-10T07:12:22;97071.31;;;8.91;65.01
47556;BME280;33291;46.222;26.460;2023-05-10T07:14:48;97079.16;;;9.02;64.59
47556;BME280;33291;46.222;26.460;2023-05-10T07:17:13;97092.03;;;9.15;64.27
47556;BME280;33291;46.222;26.460;2023-05-10T07:19:39;97078.69;;;9.08;63.65
47556;BME280;33291;46.222;26.460;2023-05-10T07:22:05;97090.03;;;9.18;63.86
47556;BME280;33291;46.222;26.460;2023-05-10T07:24:31;97060.97;;;9.13;64.02
47556;BME280;33291;46.222;26.460;2023-05-10T07:26:57;97070.78;;;9.21;64.41
47556;BME280;33291;46.222;26.460;2023-05-10T07:29:22;97094.69;;;9.37;64.34
47556;BME280;33291;46.222;26.460;2023-05-10T07:31:48;97094.56;;;9.39;63.85
47556;BME280;33291;46.222;26.460;2023-05-10T07:34:13;97093.63;;;9.40;62.41
47556;BME280;33291;46.222;26.460;2023-05-10T07:36:39;97091.13;;;9.50;61.57
47556;BME280;33291;46.222;26.460;2023-05-10T07:39:04;97093.63;;;9.51;59.18
47556;BME280;33291;46.222;26.460;2023-05-10T07:41:30;97068.91;;;9.57;59.78
47556;BME280;33291;46.222;26.460;2023-05-10T07:43:55;97093.03;;;9.82;59.35
47556;BME280;33291;46.222;26.460;2023-05-10T07:46:21;97096.09;;;9.87;60.46
47556;BME280;33291;46.222;26.460;2023-05-10T07:48:46;97089.59;;;9.92;60.07
47556;BME280;33291;46.222;26.460;2023-05-10T07:51:12;97089.22;;;9.97;59.67
47556;BME280;33291;46.222;26.460;2023-05-10T07:53:38;97088.25;;;10.09;58.77
47556;BME280;33291;46.222;26.460;2023-05-10T07:56:24;97089.44;;;10.17;58.68
47556;BME280;33291;46.222;26.460;2023-05-10T07:58:51;97095.09;;;10.22;58.91
47556;BME280;33291;46.222;26.460;2023-05-10T08:01:17;97090.81;;;10.32;58.29
47556;BME280;33291;46.222;26.460;2023-05-10T08:03:43;97064.19;;;10.28;58.35
47556;BME280;33291;46.222;26.460;2023-05-10T08:06:08;97062.41;;;10.40;58.06
47556;BME280;33291;46.222;26.460;2023-05-10T08:08:33;97079.84;;;10.61;57.99
47556;BME280;33291;46.222;26.460;2023-05-10T08:10:59;97093.72;;;10.82;57.72
47556;BME280;33291;46.222;26.460;2023-05-10T08:13:24;97079.59;;;10.96;57.60
47556;BME280;33291;46.222;26.460;2023-05-10T08:15:50;97089.88;;;10.98;56.60
47556;BME280;33291;46.222;26.460;2023-05-10T08:18:18;97091.91;;;10.94;56.81
47556;BME280;33291;46.222;26.460;2023-05-10T08:20:43;97090.19;;;10.83;57.37
47556;BME280;33291;46.222;26.460;2023-05-10T08:23:09;97093.97;;;10.79;57.83
47556;BME280;33291;46.222;26.460;2023-05-10T08:25:34;97092.13;;;10.70;57.73
47556;BME280;33291;46.222;26.460;2023-05-10T08:28:00;97086.03;;;10.60;58.06
47556;BME280;33291;46.222;26.460;2023-05-10T08:30:25;97088.38;;;10.63;58.22
47556;BME280;33291;46.222;26.460;2023-05-10T08:32:51;97099.31;;;10.57;58.09
47556;BME280;33291;46.222;26.460;2023-05-10T08:35:16;97090.56;;;10.46;58.48
47556;BME280;33291;46.222;26.460;2023-05-10T08:37:42;97083.50;;;10.37;59.38
47556;BME280;33291;46.222;26.460;2023-05-10T08:40:08;97094.38;;;10.42;59.11
47556;BME280;33291;46.222;26.460;2023-05-10T08:42:39;97093.91;;;10.37;59.22
47556;BME280;33291;46.222;26.460;2023-05-10T08:45:07;97103.38;;;10.38;59.14
47556;BME280;33291;46.222;26.460;2023-05-10T08:47:33;97093.41;;;10.32;59.12
47556;BME280;33291;46.222;26.460;2023-05-10T08:50:00;97092.38;;;10.35;59.18
47556;BME280;33291;46.222;26.460;2023-05-10T08:52:26;97098.88;;;10.40;58.47
47556;BME280;33291;46.222;26.460;2023-05-10T08:54:52;97105.47;;;10.44;58.31
47556;BME280;33291;46.222;26.460;2023-05-10T08:57:18;97086.44;;;10.44;58.63
47556;BME280;33291;46.222;26.460;2023-05-10T08:59:44;97094.56;;;10.51;57.79
47556;BME280;33291;46.222;26.460;2023-05-10T09:02:11;97093.50;;;10.53;56.69
47556;BME280;33291;46.222;26.460;2023-05-10T09:04:38;97090.78;;;10.55;57.09
47556;BME280;33291;46.222;26.460;2023-05-10T09:07:03;97083.19;;;10.63;57.05
47556;BME280;33291;46.222;26.460;2023-05-10T09:09:29;97091.44;;;10.68;57.13
47556;BME280;33291;46.222;26.460;2023-05-10T09:11:56;97091.06;;;10.73;56.56
47556;BME280;33291;46.222;26.460;2023-05-10T09:14:23;97090.44;;;10.80;56.49
47556;BME280;33291;46.222;26.460;2023-05-10T09:16:49;97083.50;;;10.91;56.06
47556;BME280;33291;46.222;26.460;2023-05-10T09:19:14;97081.22;;;10.97;55.99
47556;BME280;33291;46.222;26.460;2023-05-10T09:21:40;97074.25;;;10.98;55.57
47556;BME280;33291;46.222;26.460;2023-05-10T09:24:07;97079.34;;;10.99;55.61
47556;BME280;33291;46.222;26.460;2023-05-10T09:26:33;97073.00;;;11.02;55.56
47556;BME280;33291;46.222;26.460;2023-05-10T09:29:00;97074.16;;;11.09;55.11
47556;BME280;33291;46.222;26.460;2023-05-10T09:31:53;97066.09;;;11.12;54.63
47556;BME280;33291;46.222;26.460;2023-05-10T09:34:29;97075.47;;;11.25;54.72
47556;BME280;33291;46.222;26.460;2023-05-10T09:37:00;97062.44;;;11.25;54.95
47556;BME280;33291;46.222;26.460;2023-05-10T09:39:37;97065.13;;;11.34;53.98
47556;BME280;33291;46.222;26.460;2023-05-10T09:42:05;97065.13;;;11.34;53.90
47556;BME280;33291;46.222;26.460;2023-05-10T09:44:32;97062.94;;;11.40;54.33
47556;BME280;33291;46.222;26.460;2023-05-10T09:46:58;97060.75;;;11.45;53.78
47556;BME280;33291;46.222;26.460;2023-05-10T09:49:24;97069.44;;;11.45;53.55
47556;BME280;33291;46.222;26.460;2023-05-10T09:52:01;97056.19;;;11.37;53.41
47556;BME280;33291;46.222;26.460;2023-05-10T09:54:27;97063.50;;;11.43;53.68
47556;BME280;33291;46.222;26.460;2023-05-10T09:56:53;97055.72;;;11.53;52.75
47556;BME280;33291;46.222;26.460;2023-05-10T09:59:18;97050.50;;;11.53;52.65
47556;BME280;33291;46.222;26.460;2023-05-10T10:01:49;97046.44;;;11.60;52.52
47556;BME280;33291;46.222;26.460;2023-05-10T10:04:15;97045.06;;;11.66;52.32
47556;BME280;33291;46.222;26.460;2023-05-10T10:06:41;97043.81;;;11.60;52.39
47556;BME280;33291;46.222;26.460;2023-05-10T10:09:07;97043.84;;;11.70;51.99
47556;BME280;33291;46.222;26.460;2023-05-10T10:11:37;97049.47;;;11.75;51.97
47556;BME280;33291;46.222;26.460;2023-05-10T10:14:04;97045.91;;;11.76;51.05
47556;BME280;33291;46.222;26.460;2023-05-10T10:16:30;97042.09;;;11.80;50.74
47556;BME280;33291;46.222;26.460;2023-05-10T10:18:56;97054.50;;;11.98;50.07
47556;BME280;33291;46.222;26.460;2023-05-10T10:21:22;97052.88;;;12.06;50.16
47556;BME280;33291;46.222;26.460;2023-05-10T10:23:48;97039.44;;;12.11;48.26
47556;BME280;33291;46.222;26.460;2023-05-10T10:26:15;97034.22;;;12.11;47.86
47556;BME280;33291;46.222;26.460;2023-05-10T10:29:01;97052.63;;;12.09;49.16
47556;BME280;33291;46.222;26.460;2023-05-10T10:31:51;97052.94;;;12.26;49.53
47556;BME280;33291;46.222;26.460;2023-05-10T10:34:28;97043.56;;;12.23;48.18
47556;BME280;33291;46.222;26.460;2023-05-10T10:36:56;97044.56;;;12.22;48.48
47556;BME280;33291;46.222;26.460;2023-05-10T10:39:22;97041.38;;;12.19;47.76
47556;BME280;33291;46.222;26.460;2023-05-10T10:41:54;97042.22;;;12.19;48.02
47556;BME280;33291;46.222;26.460;2023-05-10T10:47:05;97041.41;;;12.29;45.50
47556;BME280;33291;46.222;26.460;2023-05-10T10:52:37;97042.75;;;12.23;46.74
47556;BME280;33291;46.222;26.460;2023-05-10T10:57:47;97033.41;;;12.30;46.20
47556;BME280;33291;46.222;26.460;2023-05-10T11:00:39;97043.88;;;12.30;45.58
47556;BME280;33291;46.222;26.460;2023-05-10T11:03:13;97031.50;;;12.22;46.24
47556;BME280;33291;46.222;26.460;2023-05-10T11:05:46;97031.22;;;12.25;46.54
47556;BME280;33291;46.222;26.460;2023-05-10T11:15:53;97031.59;;;12.11;46.88
47556;BME280;33291;46.222;26.460;2023-05-10T11:20:52;97021.59;;;12.16;46.66
47556;BME280;33291;46.222;26.460;2023-05-10T11:23:20;97018.84;;;12.18;46.92
47556;BME280;33291;46.222;26.460;2023-05-10T11:25:48;97023.22;;;12.17;47.48
47556;BME280;33291;46.222;26.460;2023-05-10T11:28:14;96990.50;;;12.03;48.04
47556;BME280;33291;46.222;26.460;2023-05-10T11:30:41;97014.97;;;12.22;48.85
47556;BME280;33291;46.222;26.460;2023-05-10T11:33:07;97013.63;;;12.27;48.99
47556;BME280;33291;46.222;26.460;2023-05-10T11:35:40;97013.47;;;12.29;49.37
47556;BME280;33291;46.222;26.460;2023-05-10T11:38:10;97013.63;;;12.27;49.67
47556;BME280;33291;46.222;26.460;2023-05-10T11:40:36;97022.41;;;12.36;49.29
47556;BME280;33291;46.222;26.460;2023-05-10T11:43:03;97009.47;;;12.25;49.47
47556;BME280;33291;46.222;26.460;2023-05-10T11:45:31;97018.03;;;12.27;49.67
47556;BME280;33291;46.222;26.460;2023-05-10T11:47:58;97014.16;;;12.31;49.88
47556;BME280;33291;46.222;26.460;2023-05-10T11:50:24;97021.72;;;12.34;49.00
47556;BME280;33291;46.222;26.460;2023-05-10T11:52:53;96990.66;;;12.21;49.10
47556;BME280;33291;46.222;26.460;2023-05-10T11:55:20;96990.38;;;12.24;49.46
47556;BME280;33291;46.222;26.460;2023-05-10T11:57:45;97007.41;;;12.38;49.55
47556;BME280;33291;46.222;26.460;2023-05-10T12:00:12;97009.47;;;12.44;49.79
47556;BME280;33291;46.222;26.460;2023-05-10T12:02:38;97001.50;;;12.46;48.52
47556;BME280;33291;46.222;26.460;2023-05-10T12:05:04;96990.34;;;12.54;49.35
47556;BME280;33291;46.222;26.460;2023-05-10T12:07:31;97001.78;;;12.62;48.36
47556;BME280;33291;46.222;26.460;2023-05-10T12:12:37;96998.75;;;12.77;47.44
47556;BME280;33291;46.222;26.460;2023-05-10T12:15:05;96993.19;;;12.90;46.94
47556;BME280;33291;46.222;26.460;2023-05-10T12:17:31;96993.34;;;12.88;46.38
47556;BME280;33291;46.222;26.460;2023-05-10T12:20:22;96977.00;;;12.76;45.85
47556;BME280;33291;46.222;26.460;2023-05-10T12:22:53;96979.47;;;12.78;46.34
47556;BME280;33291;46.222;26.460;2023-05-10T12:25:20;96985.78;;;12.85;46.75
47556;BME280;33291;46.222;26.460;2023-05-10T12:27:57;96983.97;;;12.86;46.98
47556;BME280;33291;46.222;26.460;2023-05-10T12:30:30;96982.50;;;12.83;46.89
47556;BME280;33291;46.222;26.460;2023-05-10T12:33:01;96984.69;;;12.88;47.53
47556;BME280;33291;46.222;26.460;2023-05-10T12:35:30;96987.16;;;12.79;47.08
47556;BME280;33291;46.222;26.460;2023-05-10T12:37:56;96975.63;;;12.72;47.56
47556;BME280;33291;46.222;26.460;2023-05-10T12:40:21;96970.13;;;12.66;47.11
47556;BME280;33291;46.222;26.460;2023-05-10T12:42:47;96982.50;;;12.73;47.46
47556;BME280;33291;46.222;26.460;2023-05-10T12:45:13;96975.06;;;12.69;47.73
47556;BME280;33291;46.222;26.460;2023-05-10T12:47:39;96973.28;;;12.69;47.41
47556;BME280;33291;46.222;26.460;2023-05-10T12:50:05;96968.34;;;12.66;47.82
47556;BME280;33291;46.222;26.460;2023-05-10T12:52:31;96959.56;;;12.57;47.49
47556;BME280;33291;46.222;26.460;2023-05-10T12:54:58;96962.19;;;12.57;48.28
47556;BME280;33291;46.222;26.460;2023-05-10T12:57:24;96968.09;;;12.59;47.81
47556;BME280;33291;46.222;26.460;2023-05-10T12:59:49;96949.41;;;12.54;47.09
47556;BME280;33291;46.222;26.460;2023-05-10T13:02:15;96960.66;;;12.55;47.06
47556;BME280;33291;46.222;26.460;2023-05-10T13:04:43;96964.09;;;12.55;47.19
47556;BME280;33291;46.222;26.460;2023-05-10T13:07:09;96955.84;;;12.50;47.64
47556;BME280;33291;46.222;26.460;2023-05-10T13:09:35;96956.00;;;12.49;48.64
47556;BME280;33291;46.222;26.460;2023-05-10T13:12:01;96964.38;;;12.52;49.31
47556;BME280;33291;46.222;26.460;2023-05-10T13:14:26;96952.97;;;12.53;49.72
47556;BME280;33291;46.222;26.460;2023-05-10T13:16:52;96947.34;;;12.48;50.76
47556;BME280;33291;46.222;26.460;2023-05-10T13:19:17;96949.53;;;12.53;50.46
47556;BME280;33291;46.222;26.460;2023-05-10T13:21:43;96947.59;;;12.55;53.43
47556;BME280;33291;46.222;26.460;2023-05-10T13:24:10;96941.28;;;12.57;51.92
47556;BME280;33291;46.222;26.460;2023-05-10T13:26:36;96949.50;;;12.62;51.66
47556;BME280;33291;46.222;26.460;2023-05-10T13:29:02;96934.63;;;12.63;50.08